Time;durP1;ratioP1;P1;durP2;ratioP2;P2;SDS_P1;SDS_P2;PMS_P1;PMS_P2;Temp;Humidity;BMP_temperature;BMP_pressure;BME280_temperature;BME280_humidity;BME280_pressure;Samples;Min_cycle;Max_cycle;Signal;HPM_P1;HPM_P2
2022/01/28 00:00:12;;;;;;;10.88;5.72;;;;;;;0.93;87.63;98561.97;5100624;28;20047;-60
2022/01/28 00:05:17;;;;;;;9.30;5.57;;;;;;;1.01;87.88;98570.00;5073598;28;20047;-59
2022/01/28 00:07:45;;;;;;;9.45;5.28;;;;;;;1.05;87.75;98574.00;5077064;28;20491;-59
2022/01/28 00:10:12;;;;;;;10.15;5.55;;;;;;;1.07;88.22;98564.00;5078794;28;20126;-60
2022/01/28 00:12:54;;;;;;;11.35;5.63;;;;;;;1.09;88.00;98558.50;5085785;28;20044;-60
2022/01/28 00:15:29;;;;;;;9.13;4.70;;;;;;;1.13;88.31;98563.38;5087091;28;20039;-59
2022/01/28 00:39:49;;;;;;;8.50;4.70;;;;;;;1.43;86.15;98587.81;5081936;28;20041;-57
2022/01/28 00:42:17;;;;;;;7.97;4.40;;;;;;;1.48;86.06;98599.84;5066298;28;20040;-57
2022/01/28 00:44:44;;;;;;;8.82;5.38;;;;;;;1.52;86.19;98609.19;5078631;28;20044;-58
2022/01/28 00:47:10;;;;;;;6.70;3.67;;;;;;;1.51;86.26;98599.53;5076074;28;20044;-56
2022/01/28 00:49:37;;;;;;;7.00;4.07;;;;;;;1.54;85.87;98604.50;5086048;28;20071;-59
2022/01/28 00:52:04;;;;;;;7.90;3.58;;;;;;;1.60;85.50;98611.03;5086438;28;20093;-57
2022/01/28 00:54:30;;;;;;;10.07;6.15;;;;;;;1.49;85.91;98607.69;5082090;28;20040;-60
2022/01/28 00:56:57;;;;;;;9.40;5.80;;;;;;;1.48;86.30;98600.69;5107182;28;20039;-58
2022/01/28 00:59:23;;;;;;;8.75;4.68;;;;;;;1.41;86.36;98613.81;5095292;28;20515;-60
2022/01/28 01:01:49;;;;;;;10.48;5.35;;;;;;;1.31;86.21;98610.47;5086652;28;20040;-60
2022/01/28 01:04:17;;;;;;;8.13;4.35;;;;;;;1.35;85.67;98606.47;5077353;28;20463;-57
2022/01/28 01:06:44;;;;;;;9.88;5.35;;;;;;;1.26;86.24;98610.94;5065375;28;20040;-57
2022/01/28 01:09:11;;;;;;;11.45;5.93;;;;;;;1.17;86.75;98614.56;5084709;28;20046;-58
2022/01/28 01:11:40;;;;;;;10.13;5.35;;;;;;;1.14;87.20;98631.72;5085744;28;20307;-59
2022/01/28 01:14:06;;;;;;;14.60;5.30;;;;;;;1.14;87.29;98630.91;5085646;28;20059;-59
2022/01/28 01:16:56;;;;;;;9.52;4.07;;;;;;;1.17;87.12;98626.09;5085997;28;20036;-60
2022/01/28 01:19:25;;;;;;;9.27;4.82;;;;;;;1.15;86.97;98633.41;5075646;28;20036;-59
2022/01/28 01:21:56;;;;;;;11.95;5.80;;;;;;;1.11;86.84;98625.91;5066177;28;20461;-59
2022/01/28 01:24:26;;;;;;;8.93;4.93;;;;;;;1.11;86.84;98640.03;5065574;28;20657;-60
2022/01/28 01:26:53;;;;;;;8.23;4.50;;;;;;;1.00;87.35;98635.81;5073807;28;20055;-59
2022/01/28 01:29:22;;;;;;;8.05;4.82;;;;;;;1.03;86.78;98642.66;5074907;28;20037;-60
2022/01/28 01:31:48;;;;;;;8.52;5.05;;;;;;;1.09;86.23;98635.88;5085361;28;20470;-60
2022/01/28 01:34:19;;;;;;;10.13;5.55;;;;;;;0.94;86.84;98628.47;5085970;28;20067;-60
2022/01/28 01:36:45;;;;;;;8.10;3.83;;;;;;;0.97;86.52;98646.00;5065710;28;20037;-59
2022/01/28 01:39:22;;;;;;;15.35;5.75;;;;;;;0.96;86.75;98649.66;5066336;28;20036;-60
2022/01/28 01:41:58;;;;;;;9.50;4.85;;;;;;;0.95;86.68;98651.47;5065859;28;20040;-60
2022/01/28 01:52:27;;;;;;;7.47;3.80;;;;;;;0.81;87.52;98657.41;5068954;28;20059;-57
2022/01/28 01:54:54;;;;;;;7.07;3.95;;;;;;;0.86;87.26;98668.44;5085904;28;20044;-60
2022/01/28 01:57:21;;;;;;;9.05;3.97;;;;;;;0.85;86.88;98669.44;5085226;28;20040;-60
2022/01/28 01:59:48;;;;;;;9.13;4.75;;;;;;;0.84;86.76;98670.41;5088390;28;20048;-59
2022/01/28 02:02:14;;;;;;;9.23;4.85;;;;;;;0.78;87.46;98679.88;5073929;28;20057;-60
2022/01/28 02:04:41;;;;;;;7.97;4.20;;;;;;;0.76;87.34;98680.03;5073854;28;20507;-59
2022/01/28 02:07:08;;;;;;;7.40;4.57;;;;;;;0.83;86.70;98682.91;5085599;28;20124;-60
2022/01/28 02:09:34;;;;;;;7.07;3.92;;;;;;;0.78;87.25;98698.56;5085216;28;20051;-59
2022/01/28 02:12:01;;;;;;;8.90;4.72;;;;;;;0.81;86.79;98700.88;5084790;28;20093;-61
2022/01/28 02:14:28;;;;;;;6.38;3.03;;;;;;;0.80;86.92;98709.06;5080319;28;20798;-60
2022/01/28 02:16:55;;;;;;;6.65;4.32;;;;;;;0.80;87.21;98709.06;5078225;28;20044;-60
2022/01/28 02:19:21;;;;;;;9.52;4.65;;;;;;;0.75;87.35;98706.84;5076436;28;20404;-60
2022/01/28 02:21:51;;;;;;;9.73;5.45;;;;;;;0.74;87.40;98706.00;5067151;28;20052;-60
2022/01/28 02:24:24;;;;;;;12.15;4.85;;;;;;;0.67;87.36;98701.47;5085433;28;20114;-59
2022/01/28 02:26:51;;;;;;;10.00;4.72;;;;;;;0.74;86.88;98702.53;5081215;28;20489;-60
2022/01/28 02:29:27;;;;;;;7.50;4.60;;;;;;;0.67;87.47;98690.78;5084653;28;20052;-59
2022/01/28 02:31:55;;;;;;;9.23;5.43;;;;;;;0.75;86.79;98697.03;5079043;28;20169;-58
2022/01/28 02:34:22;;;;;;;9.00;4.38;;;;;;;0.78;86.64;98711.88;5085099;28;20048;-60
2022/01/28 02:36:49;;;;;;;8.80;5.10;;;;;;;0.84;85.93;98707.72;5075948;28;20113;-59
2022/01/28 02:39:15;;;;;;;8.25;4.72;;;;;;;0.74;86.59;98713.19;5071274;28;20036;-57
2022/01/28 02:41:46;;;;;;;9.07;4.32;;;;;;;0.76;86.44;98714.69;5073274;28;20040;-59
2022/01/28 02:44:20;;;;;;;12.10;5.77;;;;;;;0.74;86.31;98723.84;5068604;28;20820;-60
2022/01/28 02:47:00;;;;;;;11.55;5.15;;;;;;;0.77;86.38;98728.84;5072478;28;20042;-61
2022/01/28 02:49:32;;;;;;;6.60;3.72;;;;;;;0.78;85.93;98727.88;5079750;28;20509;-58
2022/01/28 02:52:01;;;;;;;7.72;4.80;;;;;;;0.81;85.79;98732.88;5066893;28;20048;-59
2022/01/28 02:54:27;;;;;;;9.70;4.72;;;;;;;0.87;85.60;98731.44;5081600;28;20093;-59
2022/01/28 02:57:04;;;;;;;11.73;5.68;;;;;;;0.95;85.16;98726.16;5087819;28;20125;-60
2022/01/28 02:59:31;;;;;;;9.60;3.67;;;;;;;0.97;84.88;98728.66;5098975;28;20040;-60
2022/01/28 03:01:58;;;;;;;12.50;5.47;;;;;;;0.97;84.71;98721.53;5088681;28;20105;-60
2022/01/28 03:07:10;;;;;;;10.57;6.50;;;;;;;1.02;84.42;98718.38;5067863;28;20049;-58
2022/01/28 03:09:50;;;;;;;8.68;3.85;;;;;;;1.07;84.22;98732.06;5069009;28;20052;-60
2022/01/28 03:12:20;;;;;;;10.68;4.80;;;;;;;1.02;84.44;98734.38;5082866;28;20044;-59
2022/01/28 03:17:48;;;;;;;12.68;4.38;;;;;;;1.01;84.35;98746.03;5082634;28;20032;-57
2022/01/28 03:20:35;;;;;;;9.30;5.22;;;;;;;1.03;84.08;98736.88;5085145;28;20040;-60
2022/01/28 03:23:02;;;;;;;8.38;4.18;;;;;;;1.04;84.47;98741.22;5085999;28;20048;-58
2022/01/28 03:25:29;;;;;;;12.68;5.80;;;;;;;1.00;84.75;98728.38;5069825;28;20045;-60
2022/01/28 03:27:59;;;;;;;16.10;5.53;;;;;;;0.98;84.72;98739.19;5071661;28;20028;-61
2022/01/28 03:30:25;;;;;;;9.18;4.15;;;;;;;0.95;84.79;98736.00;5078949;28;20045;-60
2022/01/28 03:32:52;;;;;;;9.30;4.93;;;;;;;0.91;85.22;98738.13;5080046;28;20513;-60
2022/01/28 03:35:29;;;;;;;7.07;4.25;;;;;;;0.94;85.44;98748.50;5067068;28;20067;-60
2022/01/28 03:38:00;;;;;;;8.48;4.93;;;;;;;0.93;85.37;98738.81;5068775;28;20051;-60
2022/01/28 03:40:30;;;;;;;10.88;4.85;;;;;;;0.93;85.17;98737.97;5074765;28;20081;-61
2022/01/28 03:42:57;;;;;;;11.07;5.78;;;;;;;0.94;85.17;98742.31;5083917;28;20040;-59
2022/01/28 03:45:24;;;;;;;8.90;5.20;;;;;;;0.95;85.63;98752.81;5066267;28;20059;-59
2022/01/28 03:47:50;;;;;;;12.60;6.03;;;;;;;0.95;85.70;98744.81;5067245;28;20036;-58
2022/01/28 03:50:17;;;;;;;8.55;5.15;;;;;;;0.98;85.48;98741.00;5086686;28;20644;-59
2022/01/28 03:52:43;;;;;;;11.52;5.97;;;;;;;1.02;85.71;98742.38;5087264;28;20036;-59
2022/01/28 03:55:10;;;;;;;12.93;5.85;;;;;;;1.15;85.24;98744.63;5073689;28;20094;-59
2022/01/28 03:57:37;;;;;;;10.55;5.10;;;;;;;1.10;85.63;98758.44;5066714;28;20675;-57
2022/01/28 04:00:05;;;;;;;7.47;3.75;;;;;;;1.08;85.62;98754.25;5081598;28;20052;-57
2022/01/28 04:02:35;;;;;;;14.88;6.85;;;;;;;1.00;86.04;98755.84;5078591;28;20509;-58
2022/01/28 04:13:23;;;;;;;12.00;7.65;;;;;;;0.76;86.92;98768.03;5086645;28;20094;-60
2022/01/28 04:15:52;;;;;;;13.35;7.00;;;;;;;0.69;86.82;98760.78;5079523;28;20040;-60
2022/01/28 04:18:18;;;;;;;10.75;6.63;;;;;;;0.69;86.56;98771.44;5086879;28;20109;-60
2022/01/28 04:20:45;;;;;;;11.40;5.35;;;;;;;0.74;87.09;98771.84;5086211;28;20398;-60
2022/01/28 04:23:11;;;;;;;14.65;7.10;;;;;;;0.64;87.13;98780.75;5086242;28;20048;-60
2022/01/28 04:25:38;;;;;;;12.63;5.63;;;;;;;0.58;87.43;98770.69;5085445;28;20040;-60
2022/01/28 04:28:05;;;;;;;7.03;4.72;;;;;;;0.61;87.48;98783.72;5086931;28;20058;-60
2022/01/28 04:30:31;;;;;;;11.02;5.35;;;;;;;0.64;87.36;98793.25;5085104;28;20093;-60
2022/01/28 04:32:58;;;;;;;9.38;4.97;;;;;;;0.63;87.10;98788.91;5086673;28;20111;-60
2022/01/28 04:35:25;;;;;;;10.45;4.75;;;;;;;0.55;87.22;98791.50;5075469;28;20048;-61
2022/01/28 04:38:25;;;;;;;9.27;4.47;;;;;;;0.54;87.78;98795.97;5086109;28;20040;-60
2022/01/28 04:41:02;;;;;;;11.32;6.53;;;;;;;0.50;87.76;98810.59;5077656;28;20129;-60
2022/01/28 04:43:44;;;;;;;12.93;6.47;;;;;;;0.46;88.15;98811.88;5086338;28;20507;-59
2022/01/28 04:46:31;;;;;;;12.57;6.45;;;;;;;0.45;88.28;98824.41;5066232;28;20086;-60
2022/01/28 04:49:11;;;;;;;11.93;6.53;;;;;;;0.50;88.09;98835.44;5084400;28;20045;-60
2022/01/28 04:57:10;;;;;;;12.90;6.55;;;;;;;0.57;87.60;98848.16;5085713;28;20481;-57
2022/01/28 05:02:44;;;;;;;16.40;7.80;;;;;;;0.50;88.47;98845.25;5055026;28;20500;-59
2022/01/28 05:05:35;;;;;;;11.68;6.45;;;;;;;0.56;88.19;98857.13;5071130;28;20469;-58
2022/01/28 05:24:09;;;;;;;13.23;6.75;;;;;;;0.49;88.07;98848.91;5081973;28;20473;-57
2022/01/28 05:26:53;;;;;;;16.98;7.75;;;;;;;0.45;88.54;98844.88;5084946;28;20043;-60
2022/01/28 05:29:19;;;;;;;12.30;6.87;;;;;;;0.36;88.65;98855.44;5079080;28;20048;-59
2022/01/28 05:31:47;;;;;;;17.50;7.30;;;;;;;0.38;88.37;98849.97;5069044;28;20052;-59
2022/01/28 05:34:14;;;;;;;13.48;7.60;;;;;;;0.30;88.82;98853.38;5065773;28;20071;-60
2022/01/28 05:36:41;;;;;;;15.50;6.85;;;;;;;0.22;89.30;98851.44;5065765;28;20037;-60
2022/01/28 05:39:07;;;;;;;14.00;6.57;;;;;;;0.36;88.85;98863.44;5069943;28;20036;-60
2022/01/28 05:41:34;;;;;;;17.17;6.85;;;;;;;0.27;88.00;98860.81;5084571;28;20109;-57
2022/01/28 05:44:02;;;;;;;18.83;7.00;;;;;;;0.24;88.60;98857.47;5065772;28;20040;-59
2022/01/28 05:46:29;;;;;;;12.65;6.03;;;;;;;0.15;88.51;98861.03;5065507;28;20432;-60
2022/01/28 05:48:57;;;;;;;16.13;6.78;;;;;;;0.25;88.56;98867.13;5076452;28;20040;-59
2022/01/28 05:51:25;;;;;;;11.85;6.82;;;;;;;0.21;88.45;98864.91;5084694;28;20047;-60
2022/01/28 05:53:53;;;;;;;14.15;6.70;;;;;;;0.23;88.21;98869.09;5082966;28;20048;-60
2022/01/28 05:56:20;;;;;;;10.90;5.18;;;;;;;0.32;88.01;98874.53;5085321;28;20068;-60
2022/01/28 05:58:46;;;;;;;12.73;6.65;;;;;;;0.31;87.97;98883.50;5084976;28;20101;-59
2022/01/28 06:01:13;;;;;;;13.60;6.25;;;;;;;0.33;87.68;98889.53;5071828;28;20052;-58
2022/01/28 06:03:40;;;;;;;15.52;7.38;;;;;;;0.24;88.38;98897.44;5075757;28;20074;-60
2022/01/28 06:06:08;;;;;;;17.58;7.03;;;;;;;0.21;88.55;98908.38;5081127;28;20051;-59
2022/01/28 06:08:35;;;;;;;14.82;7.40;;;;;;;0.18;88.91;98905.19;5085342;28;20033;-59
2022/01/28 06:11:01;;;;;;;18.05;8.57;;;;;;;0.17;89.06;98912.31;5085743;28;20477;-59
2022/01/28 06:13:28;;;;;;;20.58;9.68;;;;;;;0.16;89.61;98920.47;5088199;28;20040;-59
2022/01/28 06:15:56;;;;;;;15.32;9.05;;;;;;;0.16;89.63;98925.78;5081481;28;20041;-58
2022/01/28 06:18:23;;;;;;;14.70;5.93;;;;;;;0.21;89.63;98934.16;5088955;28;20044;-58
2022/01/28 06:20:49;;;;;;;15.35;8.20;;;;;;;0.23;89.71;98945.53;5088390;28;20044;-59
2022/01/28 06:23:16;;;;;;;14.25;7.60;;;;;;;0.26;89.27;98950.59;5088089;28;20032;-59
2022/01/28 06:25:44;;;;;;;15.43;8.18;;;;;;;0.29;89.41;98942.28;5069027;28;20532;-58
2022/01/28 06:28:10;;;;;;;20.38;10.38;;;;;;;0.36;89.75;98939.84;5069240;28;20086;-60
2022/01/28 06:30:37;;;;;;;19.13;9.85;;;;;;;0.41;89.69;98944.75;5079391;28;20028;-59
2022/01/28 06:33:03;;;;;;;17.25;7.78;;;;;;;0.44;89.92;98958.63;5085197;28;20059;-59
2022/01/28 06:35:30;;;;;;;20.88;10.35;;;;;;;0.44;89.93;98973.78;5069206;28;20454;-60
2022/01/28 06:37:57;;;;;;;15.77;8.00;;;;;;;0.41;90.04;98968.75;5073402;28;20044;-58
2022/01/28 06:40:23;;;;;;;22.95;11.05;;;;;;;0.41;90.01;98976.72;5082869;28;20040;-63
2022/01/28 06:42:51;;;;;;;18.52;10.50;;;;;;;0.43;89.84;98975.59;5086491;28;20719;-62
2022/01/28 06:45:18;;;;;;;19.10;9.13;;;;;;;0.49;90.30;98975.03;5078757;28;20043;-62
2022/01/28 06:47:44;;;;;;;17.80;8.13;;;;;;;0.47;89.89;98978.81;5081698;28;20044;-62
2022/01/28 06:50:11;;;;;;;16.20;8.20;;;;;;;0.64;89.53;98970.03;5081103;28;20069;-62
2022/01/28 06:52:39;;;;;;;19.02;7.32;;;;;;;0.71;88.92;98964.97;5080346;28;20052;-62
2022/01/28 06:55:06;;;;;;;12.18;6.38;;;;;;;0.78;88.47;98970.53;5086260;28;20090;-62
2022/01/28 06:57:33;;;;;;;17.27;7.72;;;;;;;0.81;88.25;98966.72;5080491;28;20039;-62
2022/01/28 07:00:01;;;;;;;18.10;7.90;;;;;;;0.94;86.78;98980.53;5083132;28;20051;-62
2022/01/28 07:02:27;;;;;;;12.25;5.28;;;;;;;1.08;86.64;98981.00;5084884;28;20040;-62
2022/01/28 07:04:54;;;;;;;15.75;7.82;;;;;;;0.99;86.13;98996.94;5076029;28;20043;-62
2022/01/28 07:07:23;;;;;;;15.80;6.22;;;;;;;0.89;86.80;98994.31;5083417;28;20467;-62
2022/01/28 07:09:51;;;;;;;15.98;8.70;;;;;;;0.72;87.52;98984.44;5084473;28;20510;-63
2022/01/28 07:12:17;;;;;;;16.25;8.18;;;;;;;0.62;88.03;98982.66;5085085;28;20044;-63
2022/01/28 07:14:44;;;;;;;16.80;8.40;;;;;;;0.62;88.14;98976.50;5084801;28;20050;-64
2022/01/28 07:17:11;;;;;;;15.05;8.13;;;;;;;0.61;87.71;98973.00;5085188;28;20453;-62
2022/01/28 07:19:38;;;;;;;13.60;7.50;;;;;;;0.71;87.47;98988.94;5080058;28;20105;-64
2022/01/28 07:22:05;;;;;;;16.17;8.40;;;;;;;0.73;87.62;98989.63;5072877;28;20094;-64
2022/01/28 07:24:33;;;;;;;13.63;7.20;;;;;;;0.66;87.19;98975.22;5072548;28;20617;-63
2022/01/28 07:27:00;;;;;;;8.98;4.28;;;;;;;0.69;87.26;98982.06;5083916;28;20048;-63
2022/01/28 07:29:30;;;;;;;15.13;6.90;;;;;;;0.74;87.22;98979.81;5086312;28;20097;-62
2022/01/28 07:31:56;;;;;;;10.68;5.80;;;;;;;0.75;86.47;98977.00;5085551;28;20115;-63
2022/01/28 07:34:24;;;;;;;12.93;5.82;;;;;;;0.84;86.23;98983.25;5087000;28;20123;-62
2022/01/28 07:36:51;;;;;;;9.07;5.72;;;;;;;0.78;86.45;98979.34;5086983;28;20051;-63
2022/01/28 07:39:18;;;;;;;15.00;7.20;;;;;;;0.80;86.19;98987.22;5086605;28;20044;-63
2022/01/28 07:41:45;;;;;;;13.30;5.70;;;;;;;0.85;85.30;98989.44;5079260;28;20048;-64
2022/01/28 07:44:11;;;;;;;12.50;6.65;;;;;;;0.76;85.69;99002.69;5085383;28;20109;-63
2022/01/28 07:46:38;;;;;;;14.18;6.47;;;;;;;0.70;86.34;98999.75;5076583;28;20043;-63
2022/01/28 07:49:05;;;;;;;13.40;6.38;;;;;;;0.67;86.14;99005.38;5078086;28;20442;-64
2022/01/28 07:51:31;;;;;;;12.85;6.13;;;;;;;0.75;86.14;99008.16;5096540;28;20044;-63
2022/01/28 07:53:58;;;;;;;15.35;5.82;;;;;;;0.78;85.38;98999.88;5080967;28;20404;-64
2022/01/28 07:56:25;;;;;;;13.60;6.45;;;;;;;0.90;85.27;99008.50;5067490;28;20048;-64
2022/01/28 07:58:51;;;;;;;12.55;5.97;;;;;;;0.95;84.59;99016.06;5083659;28;20684;-64
2022/01/28 08:01:18;;;;;;;14.00;7.18;;;;;;;1.11;84.09;99031.41;5086042;28;20059;-64
2022/01/28 08:03:45;;;;;;;15.05;6.75;;;;;;;1.03;84.23;99018.78;5077380;28;20075;-61
2022/01/28 08:06:11;;;;;;;13.43;5.45;;;;;;;1.08;84.22;99021.03;5070271;28;20048;-63
2022/01/28 08:08:38;;;;;;;15.43;6.50;;;;;;;1.15;83.79;99024.78;5071219;28;20114;-62
2022/01/28 08:11:04;;;;;;;16.00;5.00;;;;;;;1.23;82.68;99019.53;5083318;28;20523;-61
2022/01/28 08:13:31;;;;;;;11.63;4.80;;;;;;;1.28;82.12;99027.06;5083783;28;20101;-62
2022/01/28 08:15:58;;;;;;;11.23;4.90;;;;;;;1.45;81.86;99029.91;5078579;28;20575;-61
2022/01/28 08:18:24;;;;;;;18.83;5.15;;;;;;;1.45;81.42;99032.59;5076047;28;20067;-62
2022/01/28 08:20:52;;;;;;;10.30;3.97;;;;;;;1.52;81.11;99041.66;5079554;28;20045;-61
2022/01/28 08:23:19;;;;;;;13.63;7.13;;;;;;;1.48;81.03;99042.97;5078504;28;20543;-61
2022/01/28 08:25:46;;;;;;;10.38;4.68;;;;;;;1.59;80.09;99041.91;5078129;28;20412;-61
2022/01/28 08:28:13;;;;;;;9.35;4.55;;;;;;;1.61;79.99;99038.06;5085660;28;20090;-62
2022/01/28 08:30:40;;;;;;;11.52;5.40;;;;;;;1.74;79.71;99044.88;5080720;28;20133;-62
2022/01/28 08:33:07;;;;;;;11.15;4.47;;;;;;;1.91;79.25;99051.19;5075086;28;20047;-62
2022/01/28 08:35:38;;;;;;;7.80;3.65;;;;;;;1.99;78.99;99045.09;5084684;28;20047;-64
2022/01/28 08:38:15;;;;;;;7.97;3.35;;;;;;;2.07;78.77;99055.84;5088512;28;20036;-63
2022/01/28 08:40:43;;;;;;;10.05;4.35;;;;;;;2.03;79.21;99057.13;5081503;28;20529;-64
2022/01/28 08:43:11;;;;;;;8.48;3.90;;;;;;;2.10;79.34;99068.88;5076139;28;20052;-62
2022/01/28 08:45:37;;;;;;;12.93;5.53;;;;;;;2.05;78.90;99084.53;5078384;28;20712;-65
2022/01/28 08:48:04;;;;;;;16.60;5.47;;;;;;;2.11;78.75;99083.06;5077897;28;20048;-62
2022/01/28 08:50:31;;;;;;;14.85;5.97;;;;;;;2.12;78.76;99084.75;5078321;28;20051;-61
2022/01/28 08:52:57;;;;;;;11.07;5.32;;;;;;;2.06;79.10;99083.53;5082990;28;20047;-62
2022/01/28 08:55:25;;;;;;;12.65;4.35;;;;;;;2.08;79.28;99076.22;5073973;28;20044;-63
2022/01/28 08:57:53;;;;;;;10.43;5.72;;;;;;;2.09;79.31;99080.56;5079405;28;20082;-63
2022/01/28 09:00:22;;;;;;;10.57;4.97;;;;;;;2.10;79.12;99084.91;5082349;28;20044;-63
2022/01/28 09:02:50;;;;;;;9.30;4.65;;;;;;;2.26;78.40;99084.22;5085942;28;20068;-63
2022/01/28 09:05:18;;;;;;;13.43;6.82;;;;;;;2.32;78.42;99075.56;5069365;28;20191;-63
2022/01/28 09:07:45;;;;;;;8.95;4.53;;;;;;;2.47;78.14;99075.81;5082085;28;20056;-64
2022/01/28 09:10:18;;;;;;;11.05;4.93;;;;;;;2.57;77.67;99070.38;5078133;28;20101;-62
2022/01/28 09:12:59;;;;;;;9.32;3.72;;;;;;;2.59;76.58;99076.38;5087884;28;20043;-63
2022/01/28 09:15:26;;;;;;;16.55;5.63;;;;;;;2.67;76.73;99082.78;5091301;28;20043;-64
2022/01/28 09:17:56;;;;;;;9.45;5.13;;;;;;;2.46;77.62;99074.16;5082977;28;20033;-63
2022/01/28 09:20:27;;;;;;;8.73;4.17;;;;;;;2.57;77.09;99080.22;5073202;28;20056;-63
2022/01/28 09:22:53;;;;;;;9.95;3.50;;;;;;;2.66;75.91;99073.94;5083262;28;20289;-64
2022/01/28 09:25:20;;;;;;;8.30;3.30;;;;;;;2.62;75.31;99074.41;5073443;28;20090;-64
2022/01/28 09:27:47;;;;;;;8.35;3.15;;;;;;;2.65;75.54;99072.25;5073711;28;20147;-64
2022/01/28 09:30:13;;;;;;;7.68;3.47;;;;;;;2.77;75.07;99086.19;5080347;28;20101;-65
2022/01/28 09:32:40;;;;;;;8.07;2.70;;;;;;;2.72;75.61;99091.16;5083110;28;20587;-64
2022/01/28 09:35:07;;;;;;;12.15;3.60;;;;;;;2.74;75.85;99091.88;5071972;28;20044;-64
2022/01/28 09:37:34;;;;;;;7.82;3.20;;;;;;;2.86;75.28;99097.78;5083675;28;20086;-64
2022/01/28 09:40:01;;;;;;;8.38;3.53;;;;;;;2.78;75.45;99092.38;5078735;28;20072;-64
2022/01/28 09:42:31;;;;;;;8.60;4.35;;;;;;;2.73;74.15;99104.38;5082846;28;20052;-64
2022/01/28 09:44:59;;;;;;;8.35;3.05;;;;;;;2.80;74.32;99109.94;5080630;28;20069;-63
2022/01/28 09:47:26;;;;;;;5.35;2.65;;;;;;;2.86;74.26;99109.31;5086684;28;20051;-63
2022/01/28 09:49:53;;;;;;;10.60;3.75;;;;;;;2.93;74.75;99103.31;5086621;28;20044;-64
2022/01/28 09:52:19;;;;;;;5.63;2.25;;;;;;;2.97;73.39;99102.84;5087574;28;20056;-63
2022/01/28 09:54:46;;;;;;;7.22;3.20;;;;;;;3.09;74.06;99097.19;5082987;28;20044;-64
2022/01/28 09:57:18;;;;;;;8.07;3.42;;;;;;;3.16;73.51;99100.09;5086698;28;20040;-64
2022/01/28 09:59:44;;;;;;;7.20;2.92;;;;;;;3.18;73.75;99112.31;5073291;28;20059;-64
2022/01/28 10:02:12;;;;;;;7.10;3.03;;;;;;;3.15;73.98;99104.59;5086277;28;20052;-64
2022/01/28 10:04:39;;;;;;;7.28;2.60;;;;;;;3.43;73.13;99116.94;5085509;28;20593;-64
2022/01/28 10:07:11;;;;;;;11.10;3.45;;;;;;;3.41;74.04;99119.75;5078911;28;20040;-63
2022/01/28 10:09:54;;;;;;;6.63;3.45;;;;;;;3.47;73.91;99108.38;5085995;28;20052;-63
2022/01/28 10:12:29;;;;;;;8.32;2.90;;;;;;;3.46;72.07;99112.06;5085255;28;20085;-63
2022/01/28 10:15:16;;;;;;;7.22;2.80;;;;;;;3.40;72.52;99111.88;5088402;28;20059;-64
2022/01/28 10:18:09;;;;;;;7.03;2.95;;;;;;;3.40;71.67;99107.38;5085046;28;20503;-63
2022/01/28 10:20:43;;;;;;;11.65;4.65;;;;;;;3.58;72.05;99111.78;5079668;28;20056;-65
2022/01/28 10:23:13;;;;;;;5.55;2.70;;;;;;;3.65;72.90;99102.09;5094383;28;20427;-64
2022/01/28 10:25:42;;;;;;;6.50;2.85;;;;;;;3.63;72.53;99109.44;5095334;28;20043;-65
2022/01/28 10:28:11;;;;;;;6.50;2.10;;;;;;;3.65;72.11;99110.13;5090993;28;20580;-63
2022/01/28 10:30:42;;;;;;;12.13;2.78;;;;;;;3.80;71.21;99101.44;5086234;28;20055;-64
2022/01/28 10:33:16;;;;;;;4.95;2.08;;;;;;;4.02;70.59;99095.41;5087528;28;20097;-64
2022/01/28 10:36:01;;;;;;;6.88;2.90;;;;;;;3.94;71.81;99098.09;5078087;28;20513;-64
2022/01/28 10:38:31;;;;;;;5.35;2.33;;;;;;;3.53;71.35;99098.03;5087321;28;20633;-63
2022/01/28 10:41:18;;;;;;;9.45;2.72;;;;;;;3.39;71.86;99097.66;5085842;28;20044;-64
2022/01/28 10:43:51;;;;;;;6.97;3.22;;;;;;;3.48;71.85;99094.00;5077064;28;20407;-64
2022/01/28 10:46:26;;;;;;;5.38;2.30;;;;;;;3.50;71.37;99085.78;5090875;28;20117;-64
2022/01/28 10:48:59;;;;;;;5.53;2.22;;;;;;;3.73;71.16;99082.50;5093362;28;20082;-64
2022/01/28 10:52:01;;;;;;;4.90;2.13;;;;;;;3.95;70.87;99089.06;5074301;28;20147;-65
2022/01/28 10:54:27;;;;;;;6.90;2.40;;;;;;;3.93;69.24;99080.34;5086000;28;20059;-64
2022/01/28 10:56:56;;;;;;;5.38;2.30;;;;;;;3.88;70.73;99096.09;5075190;28;20415;-64
2022/01/28 10:59:34;;;;;;;10.10;4.03;;;;;;;3.98;70.63;99088.72;5085210;28;20070;-64
2022/01/28 11:02:02;;;;;;;7.43;2.58;;;;;;;4.17;68.96;99094.78;5090842;28;20052;-64
2022/01/28 11:04:29;;;;;;;4.80;2.28;;;;;;;4.19;68.15;99097.25;5085794;28;20039;-64
2022/01/28 11:06:58;;;;;;;10.40;2.70;;;;;;;4.18;67.48;99093.75;5083339;28;20051;-64
2022/01/28 11:09:26;;;;;;;6.22;1.92;;;;;;;4.16;67.93;99101.13;5085826;28;20098;-63
2022/01/28 11:11:54;;;;;;;6.43;2.55;;;;;;;4.21;68.56;99104.16;5082342;28;20068;-63
2022/01/28 11:14:22;;;;;;;7.25;3.13;;;;;;;4.22;68.68;99091.56;5084965;28;20545;-64
2022/01/28 11:16:48;;;;;;;8.52;3.30;;;;;;;3.97;69.14;99097.78;5090207;28;20044;-64
2022/01/28 11:19:18;;;;;;;7.53;2.80;;;;;;;4.28;68.30;99094.41;5078110;28;20636;-64
2022/01/28 11:22:24;;;;;;;8.48;3.83;;;;;;;4.29;67.83;99106.84;5085750;28;20116;-64
2022/01/28 11:25:17;;;;;;;5.05;2.45;;;;;;;4.39;68.40;99106.63;5073689;28;20047;-64
2022/01/28 11:27:46;;;;;;;7.30;3.63;;;;;;;4.31;69.46;99109.31;5081629;28;20070;-64
2022/01/28 11:30:31;;;;;;;7.90;2.78;;;;;;;4.49;69.65;99103.78;5089129;28;20553;-63
2022/01/28 11:33:01;;;;;;;13.27;3.60;;;;;;;4.15;70.67;99110.16;5085557;28;20048;-63
2022/01/28 11:35:29;;;;;;;6.93;2.45;;;;;;;3.85;69.92;99110.66;5091726;28;20313;-63
2022/01/28 11:38:02;;;;;;;7.13;3.63;;;;;;;3.59;72.11;99106.25;5090797;28;20113;-63
2022/01/28 11:40:41;;;;;;;9.45;3.20;;;;;;;3.76;72.61;99100.94;5093670;28;20510;-64
2022/01/28 11:43:31;;;;;;;9.35;3.08;;;;;;;3.85;71.84;99104.47;5086468;28;20063;-63
2022/01/28 11:46:08;;;;;;;8.25;2.53;;;;;;;3.85;71.13;99099.09;5097745;28;20118;-63
2022/01/28 11:48:56;;;;;;;5.68;2.65;;;;;;;3.86;69.38;99103.44;5066071;28;20037;-63
2022/01/28 11:51:24;;;;;;;7.68;3.10;;;;;;;3.85;70.93;99094.59;5082895;28;20055;-64
2022/01/28 11:53:59;;;;;;;5.18;2.13;;;;;;;4.13;70.42;99085.38;5085188;28;20063;-65
2022/01/28 11:56:26;;;;;;;8.70;3.10;;;;;;;4.16;70.38;99082.34;5083671;28;20048;-65
2022/01/28 11:58:58;;;;;;;7.45;2.78;;;;;;;4.02;70.48;99078.53;5084702;28;20035;-64
2022/01/28 12:01:43;;;;;;;9.38;3.55;;;;;;;3.80;70.90;99091.56;5085381;28;20059;-64
2022/01/28 12:04:31;;;;;;;9.40;5.05;;;;;;;3.53;71.85;99096.19;5084083;28;20326;-65
2022/01/28 12:07:06;;;;;;;7.95;3.90;;;;;;;3.62;71.42;99100.56;5076933;28;20040;-64
2022/01/28 12:09:35;;;;;;;8.57;4.30;;;;;;;3.93;72.24;99109.81;5088885;28;20135;-65
2022/01/28 12:12:03;;;;;;;10.52;4.20;;;;;;;3.96;71.23;99098.78;5084913;28;20059;-64
2022/01/28 12:15:00;;;;;;;8.02;3.65;;;;;;;3.71;71.57;99090.72;5083523;28;20106;-66
2022/01/28 12:17:38;;;;;;;8.23;3.70;;;;;;;3.84;72.56;99092.06;5074826;28;20044;-65
2022/01/28 12:20:46;;;;;;;10.57;4.50;;;;;;;4.02;72.73;99082.03;5086501;28;20040;-65
2022/01/28 12:23:12;;;;;;;8.95;3.95;;;;;;;4.21;71.58;99081.84;5095481;28;20044;-65
2022/01/28 12:25:39;;;;;;;8.88;3.45;;;;;;;4.26;71.33;99084.88;5083212;28;20063;-64
2022/01/28 12:28:27;;;;;;;6.28;2.80;;;;;;;4.02;70.90;99083.88;5084891;28;20040;-64
2022/01/28 12:31:02;;;;;;;12.88;4.25;;;;;;;3.89;72.38;99076.31;5073212;28;20036;-64
2022/01/28 12:33:36;;;;;;;7.50;3.80;;;;;;;3.65;73.75;99086.03;5084268;28;20527;-63
2022/01/28 12:36:11;;;;;;;12.02;4.68;;;;;;;3.43;74.97;99076.75;5077980;28;20044;-64
2022/01/28 12:38:54;;;;;;;11.13;5.18;;;;;;;3.38;75.32;99087.94;5090459;28;20075;-63
2022/01/28 12:41:23;;;;;;;13.52;6.18;;;;;;;3.48;75.66;99088.66;5087754;28;20264;-64
2022/01/28 12:43:50;;;;;;;9.45;5.63;;;;;;;3.81;74.18;99097.75;5083803;28;20125;-64
2022/01/28 12:46:17;;;;;;;7.80;3.88;;;;;;;4.00;73.18;99084.03;5082591;28;20572;-63
2022/01/28 12:48:53;;;;;;;13.57;5.47;;;;;;;4.01;73.98;99076.81;5083847;28;20144;-63
2022/01/28 12:51:21;;;;;;;14.02;5.50;;;;;;;3.70;75.02;99083.69;5084094;28;20048;-64
2022/01/28 12:53:57;;;;;;;9.85;5.38;;;;;;;3.31;75.44;99092.28;5083724;28;20040;-63
2022/01/28 12:56:32;;;;;;;17.33;6.25;;;;;;;2.88;77.13;99092.25;5083721;28;20044;-63
2022/01/28 12:59:00;;;;;;;12.10;6.38;;;;;;;2.76;77.40;99075.66;5083606;28;20059;-63
2022/01/28 13:01:27;;;;;;;10.20;5.70;;;;;;;2.63;77.78;99084.94;5084738;28;20044;-63